createdAt,value
2017-05-25T00:01:49.888Z,89.40
2017-05-25T00:04:18.166Z,89.40
2017-05-25T00:06:46.431Z,89.30
2017-05-25T00:09:14.699Z,89.50
2017-05-25T00:11:42.963Z,89.60
2017-05-25T00:14:11.235Z,89.60
2017-05-25T00:16:39.502Z,89.70
2017-05-25T00:19:07.779Z,89.80
2017-05-25T00:21:36.035Z,89.80
2017-05-25T00:24:04.289Z,89.70
2017-05-25T00:26:32.571Z,90.00
2017-05-25T00:29:00.827Z,90.60
2017-05-25T00:31:29.105Z,90.50
2017-05-25T00:33:57.365Z,90.20
2017-05-25T00:36:25.639Z,90.00
2017-05-25T00:38:53.898Z,90.10
2017-05-25T00:41:22.174Z,90.20
2017-05-25T00:43:50.422Z,90.00
2017-05-25T00:46:18.696Z,90.00
2017-05-25T00:48:46.952Z,90.00
2017-05-25T00:51:15.226Z,90.10
2017-05-25T00:53:43.486Z,90.50
2017-05-25T00:56:11.768Z,91.10
2017-05-25T00:58:40.875Z,91.10
2017-05-25T01:01:09.177Z,90.90
2017-05-25T01:03:37.423Z,91.00
2017-05-25T01:06:05.683Z,91.20
2017-05-25T01:08:33.955Z,91.00
2017-05-25T01:11:02.210Z,90.60
2017-05-25T01:13:30.477Z,90.90
2017-05-25T01:15:58.731Z,91.00
2017-05-25T01:18:27.008Z,90.70
2017-05-25T01:20:55.259Z,90.60
2017-05-25T01:23:23.542Z,90.70
2017-05-25T01:25:51.799Z,90.90
2017-05-25T01:28:20.079Z,91.00
2017-05-25T01:30:48.339Z,91.10
2017-05-25T01:33:16.613Z,91.10
2017-05-25T01:35:44.866Z,91.40
2017-05-25T01:38:13.175Z,91.20
2017-05-25T01:40:41.426Z,91.00
2017-05-25T01:43:09.682Z,90.80
2017-05-25T01:45:37.960Z,90.60
2017-05-25T01:48:05.446Z,90.60
2017-05-25T01:50:33.711Z,90.90
2017-05-25T01:53:01.962Z,91.10
2017-05-25T01:55:30.232Z,91.10
2017-05-25T01:57:58.479Z,91.20
2017-05-25T02:00:26.746Z,91.50
2017-05-25T02:02:55.012Z,91.50
2017-05-25T02:05:23.301Z,91.50
2017-05-25T02:07:51.567Z,91.40
2017-05-25T02:10:19.838Z,91.30
2017-05-25T02:12:48.099Z,91.30
2017-05-25T02:15:16.397Z,91.30
2017-05-25T02:17:44.651Z,91.30
2017-05-25T02:20:12.911Z,91.50
2017-05-25T02:22:41.183Z,91.30
2017-05-25T02:25:09.443Z,91.60
2017-05-25T02:27:37.715Z,91.60
2017-05-25T02:30:05.975Z,91.50
2017-05-25T02:32:34.249Z,91.50
2017-05-25T02:35:02.508Z,91.40
2017-05-25T02:37:30.775Z,91.10
2017-05-25T02:39:59.035Z,91.00
2017-05-25T02:42:27.310Z,91.60
2017-05-25T02:44:55.575Z,92.10
2017-05-25T02:47:23.847Z,92.20
2017-05-25T02:49:52.105Z,92.30
2017-05-25T02:52:20.372Z,92.40
2017-05-25T02:54:48.627Z,92.20
2017-05-25T02:57:16.908Z,92.50
2017-05-25T02:59:45.169Z,92.60
2017-05-25T03:02:13.456Z,92.40
2017-05-25T03:04:41.727Z,92.50
2017-05-25T03:07:10.000Z,92.80
2017-05-25T03:09:38.259Z,92.80
2017-05-25T03:12:06.519Z,92.50
2017-05-25T03:14:34.801Z,92.60
2017-05-25T03:17:03.059Z,92.40
2017-05-25T03:19:32.151Z,92.80
2017-05-25T03:22:00.410Z,93.20
2017-05-25T03:24:28.683Z,93.50
2017-05-25T03:26:56.946Z,93.70
2017-05-25T03:29:25.231Z,93.80
2017-05-25T03:31:53.488Z,93.90
2017-05-25T03:34:21.749Z,94.00
2017-05-25T03:36:50.026Z,94.00
2017-05-25T03:39:18.285Z,94.00
2017-05-25T03:41:46.567Z,93.80
2017-05-25T03:44:14.822Z,94.10
2017-05-25T03:46:43.095Z,93.90
2017-05-25T03:49:11.361Z,93.70
2017-05-25T03:51:39.637Z,93.30
2017-05-25T03:54:07.897Z,93.00
2017-05-25T03:56:36.170Z,92.80
2017-05-25T03:59:04.434Z,92.80
2017-05-25T04:01:32.711Z,93.10
2017-05-25T04:04:00.968Z,93.30
2017-05-25T04:06:29.229Z,93.20
2017-05-25T04:08:57.499Z,93.20
2017-05-25T04:11:25.752Z,93.20
2017-05-25T04:13:54.034Z,93.50
2017-05-25T04:16:22.286Z,93.50
2017-05-25T04:18:50.562Z,93.30
2017-05-25T04:21:18.820Z,93.00
2017-05-25T04:23:47.100Z,92.90
2017-05-25T04:26:15.359Z,92.90
2017-05-25T04:28:43.641Z,93.00
2017-05-25T04:31:11.890Z,92.50
2017-05-25T04:33:40.490Z,92.40
2017-05-25T04:36:08.743Z,92.00
2017-05-25T04:38:37.026Z,91.60
2017-05-25T04:41:05.287Z,91.50
2017-05-25T04:43:33.559Z,91.40
2017-05-25T04:46:01.818Z,91.20
2017-05-25T04:48:30.095Z,90.80
2017-05-25T04:50:58.351Z,90.50
2017-05-25T04:53:26.605Z,90.40
2017-05-25T04:55:54.875Z,90.00
2017-05-25T04:58:23.134Z,89.00
2017-05-25T05:00:51.415Z,87.60
2017-05-25T05:03:19.670Z,86.80
2017-05-25T05:05:47.936Z,85.90
2017-05-25T05:08:16.187Z,85.60
2017-05-25T05:10:45.386Z,85.70
2017-05-25T05:13:13.647Z,85.40
2017-05-25T05:15:41.930Z,84.80
2017-05-25T05:18:10.188Z,84.00
2017-05-25T05:20:38.471Z,83.50
2017-05-25T05:23:06.739Z,84.00
2017-05-25T05:25:35.015Z,83.90
2017-05-25T05:28:03.282Z,83.60
2017-05-25T05:30:31.561Z,83.20
2017-05-25T05:32:59.827Z,83.00
2017-05-25T05:35:28.088Z,82.20
2017-05-25T05:37:56.381Z,80.40
2017-05-25T05:40:24.647Z,79.60
2017-05-25T05:42:52.924Z,78.50
2017-05-25T05:45:21.183Z,82.40
2017-05-25T05:47:49.459Z,79.10
2017-05-25T05:50:17.715Z,75.30
2017-05-25T05:52:45.229Z,75.30
2017-05-25T05:55:13.479Z,69.90
2017-05-25T05:57:41.743Z,67.10
2017-05-25T06:00:10.003Z,64.40
2017-05-25T06:02:38.288Z,62.30
2017-05-25T06:05:06.542Z,58.90
2017-05-25T06:07:34.803Z,57.00
2017-05-25T06:10:03.080Z,55.60
2017-05-25T06:12:31.328Z,54.30
2017-05-25T06:14:59.599Z,56.10
2017-05-25T06:17:27.850Z,55.60
2017-05-25T06:19:56.107Z,54.90
2017-05-25T06:22:24.359Z,53.70
2017-05-25T06:24:52.634Z,52.50
2017-05-25T06:27:21.863Z,51.60
2017-05-25T06:29:50.143Z,53.00
2017-05-25T06:32:18.495Z,54.30
2017-05-25T06:34:46.747Z,53.30
2017-05-25T06:37:15.014Z,52.80
2017-05-25T06:39:43.260Z,52.00
2017-05-25T06:42:11.524Z,51.50
2017-05-25T06:44:39.783Z,50.40
2017-05-25T06:47:08.154Z,51.10
2017-05-25T06:49:36.410Z,50.90
2017-05-25T06:52:04.682Z,50.60
2017-05-25T06:54:32.930Z,51.50
2017-05-25T06:57:01.194Z,52.80
2017-05-25T06:59:29.443Z,54.40
2017-05-25T07:01:57.716Z,56.20
2017-05-25T07:04:25.974Z,57.50
2017-05-25T07:06:54.226Z,57.00
2017-05-25T07:09:22.503Z,55.10
2017-05-25T07:11:50.758Z,55.30
2017-05-25T07:14:19.027Z,55.20
2017-05-25T07:16:47.283Z,55.80
2017-05-25T07:19:15.555Z,56.60
2017-05-25T07:21:43.806Z,55.20
2017-05-25T07:24:12.075Z,54.20
2017-05-25T07:26:40.331Z,52.00
2017-05-25T07:29:08.595Z,50.20
2017-05-25T07:31:36.879Z,47.90
2017-05-25T07:34:05.151Z,44.80
2017-05-25T07:36:33.396Z,45.80
2017-05-25T07:39:02.570Z,43.90
2017-05-25T07:41:30.826Z,42.50
2017-05-25T07:43:59.075Z,41.10
2017-05-25T07:46:27.347Z,40.00
2017-05-25T07:48:55.595Z,39.50
2017-05-25T07:51:23.864Z,39.00
2017-05-25T07:53:52.123Z,37.80
2017-05-25T07:56:20.391Z,37.30
2017-05-25T07:58:48.651Z,37.30
2017-05-25T08:01:16.923Z,38.70
2017-05-25T08:03:45.178Z,39.90
2017-05-25T08:06:13.452Z,39.20
2017-05-25T08:08:41.703Z,37.50
2017-05-25T08:11:09.978Z,37.30
2017-05-25T08:13:38.229Z,37.30
2017-05-25T08:16:06.503Z,36.80
2017-05-25T08:18:34.756Z,36.00
2017-05-25T08:21:03.001Z,35.00
2017-05-25T08:23:31.276Z,36.10
2017-05-25T08:25:59.526Z,36.30
2017-05-25T08:28:27.791Z,35.00
2017-05-25T08:30:56.083Z,36.20
2017-05-25T08:33:24.347Z,36.60
2017-05-25T08:35:52.593Z,35.30
2017-05-25T08:38:20.861Z,32.90
2017-05-25T08:40:49.107Z,32.20
2017-05-25T08:43:17.387Z,33.20
2017-05-25T08:45:45.642Z,33.60
2017-05-25T08:48:13.911Z,32.10
2017-05-25T08:50:42.163Z,32.20
2017-05-25T08:53:10.430Z,35.40
2017-05-25T08:55:38.674Z,33.70
2017-05-25T08:58:06.959Z,32.20
2017-05-25T09:00:35.215Z,31.40
2017-05-25T09:03:03.463Z,31.10
2017-05-25T09:05:32.570Z,31.50
2017-05-25T09:08:00.843Z,32.00
2017-05-25T09:10:29.108Z,30.10
2017-05-25T09:12:57.365Z,30.00
2017-05-25T09:15:25.651Z,29.50
2017-05-25T09:17:53.901Z,30.40
2017-05-25T09:20:21.403Z,30.40
2017-05-25T09:22:49.656Z,29.30
2017-05-25T09:25:17.927Z,29.60
2017-05-25T09:27:46.176Z,30.30
2017-05-25T09:30:14.441Z,31.20
2017-05-25T09:32:42.697Z,32.70
2017-05-25T09:35:10.974Z,31.00
2017-05-25T09:37:39.216Z,28.70
2017-05-25T09:40:07.488Z,28.40
2017-05-25T09:42:36.170Z,29.80
2017-05-25T09:45:04.439Z,31.60
2017-05-25T09:47:32.684Z,33.90
2017-05-25T09:50:00.966Z,32.20
2017-05-25T09:52:29.215Z,31.40
2017-05-25T09:54:57.475Z,33.70
2017-05-25T09:57:25.727Z,34.30
2017-05-25T09:59:54.019Z,35.10
2017-05-25T10:02:22.360Z,36.20
2017-05-25T10:04:50.604Z,34.90
2017-05-25T10:07:18.870Z,32.40
2017-05-25T10:09:47.123Z,32.20
2017-05-25T10:12:15.395Z,31.40
2017-05-25T10:14:43.636Z,30.00
2017-05-25T10:17:11.915Z,29.40
2017-05-25T10:19:40.164Z,28.60
2017-05-25T10:22:08.439Z,28.70
2017-05-25T10:24:36.690Z,28.50
2017-05-25T10:27:04.955Z,27.90
2017-05-25T10:29:33.567Z,27.30
2017-05-25T10:32:01.843Z,29.00
2017-05-25T10:34:30.099Z,28.30
2017-05-25T10:36:58.357Z,29.60
2017-05-25T10:39:27.338Z,29.60
2017-05-25T10:41:55.602Z,29.40
2017-05-25T10:44:23.872Z,29.10
2017-05-25T10:46:52.136Z,29.30
2017-05-25T10:49:20.406Z,29.70
2017-05-25T10:51:49.070Z,30.70
2017-05-25T10:54:17.336Z,31.70
2017-05-25T10:56:45.595Z,32.60
2017-05-25T10:59:13.859Z,32.10
2017-05-25T11:01:42.107Z,33.70
2017-05-25T11:04:10.391Z,34.00
2017-05-25T11:06:38.639Z,34.80
2017-05-25T11:09:06.891Z,35.20
2017-05-25T11:11:35.163Z,34.20
2017-05-25T11:14:03.432Z,33.90
2017-05-25T11:16:31.887Z,33.60
2017-05-25T11:19:00.146Z,33.70
2017-05-25T11:21:28.411Z,32.70
2017-05-25T11:23:56.663Z,33.10
2017-05-25T11:26:24.984Z,32.20
2017-05-25T11:28:53.230Z,32.30
2017-05-25T11:31:21.507Z,33.70
2017-05-25T11:33:49.763Z,32.60
2017-05-25T11:36:18.009Z,32.40
2017-05-25T11:38:46.283Z,32.20
2017-05-25T11:41:14.543Z,32.50
2017-05-25T11:43:42.905Z,32.70
2017-05-25T11:46:11.158Z,34.10
2017-05-25T11:48:39.427Z,34.10
2017-05-25T11:51:07.667Z,33.80
2017-05-25T11:53:35.938Z,34.80
2017-05-25T11:56:04.192Z,33.40
2017-05-25T11:58:32.464Z,34.50
2017-05-25T12:01:00.716Z,32.90
2017-05-25T12:03:28.987Z,32.70
2017-05-25T12:05:57.236Z,32.90
2017-05-25T12:08:25.491Z,32.50
2017-05-25T12:10:53.759Z,32.90
2017-05-25T12:13:21.241Z,32.90
2017-05-25T12:15:49.507Z,34.60
2017-05-25T12:18:17.756Z,33.70
2017-05-25T12:20:46.033Z,31.40
2017-05-25T12:23:14.275Z,31.40
2017-05-25T12:25:42.547Z,30.10
2017-05-25T12:28:10.838Z,30.10
2017-05-25T12:30:39.107Z,30.50
2017-05-25T12:33:07.354Z,30.20
2017-05-25T12:35:35.603Z,29.30
2017-05-25T12:38:03.888Z,31.90
2017-05-25T12:40:32.129Z,31.00
2017-05-25T12:43:00.395Z,31.90
2017-05-25T12:45:28.642Z,32.70
2017-05-25T12:47:56.911Z,32.70
2017-05-25T12:50:25.147Z,33.40
2017-05-25T12:52:53.418Z,34.10
2017-05-25T12:55:21.689Z,34.60
2017-05-25T12:57:49.951Z,33.90
2017-05-25T13:00:18.198Z,33.90
2017-05-25T13:02:46.448Z,35.00
2017-05-25T13:05:14.715Z,33.70
2017-05-25T13:07:42.963Z,34.00
2017-05-25T13:10:11.228Z,32.10
2017-05-25T13:12:39.481Z,32.50
2017-05-25T13:15:07.750Z,32.50
2017-05-25T13:17:35.994Z,31.80
2017-05-25T13:20:04.320Z,32.10
2017-05-25T13:22:32.559Z,31.80
2017-05-25T13:25:00.831Z,32.40
2017-05-25T13:27:29.079Z,31.90
2017-05-25T13:29:57.340Z,32.10
2017-05-25T13:32:25.597Z,31.50
2017-05-25T13:34:53.877Z,31.40
2017-05-25T13:37:22.122Z,32.60
2017-05-25T13:39:50.380Z,33.00
2017-05-25T13:42:18.679Z,31.30
2017-05-25T13:44:46.925Z,32.10
2017-05-25T13:47:15.193Z,33.90
2017-05-25T13:49:43.446Z,31.70
2017-05-25T13:54:49.164Z,31.20
2017-05-25T13:57:17.418Z,30.00
2017-05-25T13:59:45.668Z,30.00
2017-05-25T14:02:13.935Z,29.80
2017-05-25T14:04:42.187Z,29.60
2017-05-25T14:07:10.454Z,31.00
2017-05-25T14:09:38.703Z,31.70
2017-05-25T14:12:06.943Z,33.50
2017-05-25T14:14:35.213Z,35.20
2017-05-25T14:17:03.468Z,34.70
2017-05-25T14:19:31.730Z,32.20
2017-05-25T14:22:00.002Z,32.50
2017-05-25T14:24:28.275Z,30.60
2017-05-25T14:26:56.523Z,31.00
2017-05-25T14:29:24.793Z,33.00
2017-05-25T14:31:53.039Z,33.00
2017-05-25T14:34:21.299Z,33.10
2017-05-25T14:36:49.540Z,33.20
2017-05-25T14:39:17.796Z,33.20
2017-05-25T14:41:46.061Z,34.70
2017-05-25T14:44:14.313Z,35.60
2017-05-25T14:46:42.579Z,34.50
2017-05-25T14:49:10.831Z,35.20
2017-05-25T14:51:39.096Z,37.40
2017-05-25T14:54:07.340Z,36.10
2017-05-25T14:56:35.603Z,36.00
2017-05-25T14:59:03.848Z,35.70
2017-05-25T15:01:32.127Z,35.30
2017-05-25T15:04:00.371Z,34.50
2017-05-25T15:06:27.863Z,34.50
2017-05-25T15:08:56.135Z,35.00
2017-05-25T15:11:24.386Z,34.90
2017-05-25T15:13:52.653Z,34.40
2017-05-25T15:16:20.898Z,34.00
2017-05-25T15:18:49.161Z,34.10
2017-05-25T15:21:17.407Z,34.30
2017-05-25T15:23:45.665Z,33.60
2017-05-25T15:26:13.934Z,34.40
2017-05-25T15:28:42.213Z,35.10
2017-05-25T15:31:10.476Z,34.80
2017-05-25T15:33:38.849Z,35.40
2017-05-25T15:36:07.090Z,35.90
2017-05-25T15:38:35.355Z,37.00
2017-05-25T15:41:03.597Z,37.70
2017-05-25T15:43:31.847Z,37.70
2017-05-25T15:46:00.146Z,38.70
2017-05-25T15:48:28.395Z,38.50
2017-05-25T15:50:56.659Z,39.80
2017-05-25T15:53:24.903Z,38.30
2017-05-25T15:55:53.164Z,38.60
2017-05-25T15:58:21.416Z,37.60
2017-05-25T16:00:49.707Z,36.80
2017-05-25T16:03:17.948Z,37.00
2017-05-25T16:05:46.810Z,36.80
2017-05-25T16:08:15.059Z,37.70
2017-05-25T16:10:43.325Z,37.30
2017-05-25T16:13:11.573Z,38.10
2017-05-25T16:15:39.849Z,37.90
2017-05-25T16:18:08.100Z,37.30
2017-05-25T16:20:36.353Z,37.30
2017-05-25T16:23:05.410Z,37.40
2017-05-25T16:25:33.658Z,37.40
2017-05-25T16:28:01.959Z,37.70
2017-05-25T16:30:30.199Z,37.20
2017-05-25T16:32:58.473Z,37.50
2017-05-25T16:35:26.720Z,36.90
2017-05-25T16:37:54.983Z,37.00
2017-05-25T16:40:23.239Z,36.40
2017-05-25T16:42:51.502Z,36.20
2017-05-25T16:45:19.742Z,36.00
2017-05-25T16:47:47.998Z,35.60
2017-05-25T16:50:16.240Z,35.90
2017-05-25T16:52:44.496Z,36.80
2017-05-25T16:55:12.759Z,38.40
2017-05-25T16:57:41.007Z,38.90
2017-05-25T17:00:09.266Z,39.00
2017-05-25T17:02:37.511Z,39.50
2017-05-25T17:05:05.775Z,39.80
2017-05-25T17:07:34.019Z,40.00
2017-05-25T17:10:02.291Z,40.30
2017-05-25T17:12:30.542Z,40.40
2017-05-25T17:14:58.832Z,40.20
2017-05-25T17:17:27.086Z,40.40
2017-05-25T17:19:55.343Z,41.00
2017-05-25T17:22:23.634Z,41.00
2017-05-25T17:24:51.905Z,40.80
2017-05-25T17:27:20.171Z,41.10
2017-05-25T17:29:48.439Z,41.10
2017-05-25T17:32:16.698Z,41.60
2017-05-25T17:34:44.949Z,41.50
2017-05-25T17:37:13.333Z,41.90
2017-05-25T17:39:41.574Z,41.90
2017-05-25T17:42:09.816Z,42.00
2017-05-25T17:44:38.088Z,42.20
2017-05-25T17:47:06.347Z,42.70
2017-05-25T17:49:34.627Z,42.80
2017-05-25T17:52:02.867Z,43.30
2017-05-25T17:54:31.164Z,43.00
2017-05-25T17:56:59.406Z,43.20
2017-05-25T17:59:27.693Z,43.30
2017-05-25T18:01:55.948Z,44.10
2017-05-25T18:04:24.238Z,44.00
2017-05-25T18:06:52.486Z,44.10
2017-05-25T18:09:20.744Z,44.30
2017-05-25T18:11:49.029Z,44.70
2017-05-25T18:14:17.305Z,45.20
2017-05-25T18:16:45.586Z,45.20
2017-05-25T18:19:13.092Z,45.20
2017-05-25T18:21:41.376Z,45.90
2017-05-25T18:24:08.872Z,45.90
2017-05-25T18:26:37.145Z,46.60
2017-05-25T18:29:04.795Z,46.60
2017-05-25T18:31:33.196Z,46.90
2017-05-25T18:34:00.879Z,46.80
2017-05-25T18:36:29.260Z,47.90
2017-05-25T18:38:56.851Z,47.80
2017-05-25T18:41:25.232Z,48.10
2017-05-25T18:43:53.633Z,48.20
2017-05-25T18:46:21.876Z,48.40
2017-05-25T18:48:50.143Z,48.40
2017-05-25T18:51:18.384Z,48.70
2017-05-25T18:53:46.648Z,49.10
2017-05-25T18:56:15.739Z,49.70
2017-05-25T18:58:44.002Z,49.50
2017-05-25T19:01:11.487Z,49.50
2017-05-25T19:03:39.776Z,49.80
2017-05-25T19:06:08.019Z,50.00
2017-05-25T19:08:36.272Z,49.90
2017-05-25T19:11:04.547Z,50.20
2017-05-25T19:13:32.803Z,50.40
2017-05-25T19:16:01.062Z,50.60
2017-05-25T19:18:29.323Z,50.90
2017-05-25T19:20:57.788Z,51.30
2017-05-25T19:23:26.133Z,51.30
2017-05-25T19:25:54.529Z,51.50
2017-05-25T19:28:22.785Z,51.70
2017-05-25T19:30:51.051Z,52.00
2017-05-25T19:33:19.310Z,52.00
2017-05-25T19:35:47.582Z,51.80
2017-05-25T19:38:15.839Z,52.00
2017-05-25T19:40:44.095Z,52.40
2017-05-25T19:43:11.788Z,52.40
2017-05-25T19:45:40.092Z,52.50
2017-05-25T19:48:08.356Z,52.80
2017-05-25T19:50:35.843Z,52.80
2017-05-25T19:53:04.121Z,53.00
2017-05-25T19:55:32.376Z,53.30
2017-05-25T19:58:00.642Z,53.50
2017-05-25T20:00:28.889Z,53.70
2017-05-25T20:02:57.164Z,53.80
2017-05-25T20:05:25.420Z,54.50
2017-05-25T20:07:54.119Z,54.50
2017-05-25T20:10:22.383Z,54.60
2017-05-25T20:12:50.657Z,55.10
2017-05-25T20:15:18.903Z,55.00
2017-05-25T20:17:47.163Z,55.20
2017-05-25T20:20:15.410Z,55.30
2017-05-25T20:22:43.670Z,55.40
2017-05-25T20:25:12.951Z,55.70
2017-05-25T20:27:41.316Z,55.70
2017-05-25T20:30:09.563Z,55.70
2017-05-25T20:32:37.834Z,55.90
2017-05-25T20:35:06.087Z,56.20
2017-05-25T20:37:34.351Z,56.30
2017-05-25T20:40:02.607Z,56.60
2017-05-25T20:42:30.867Z,56.70
2017-05-25T20:44:59.140Z,57.10
2017-05-25T20:47:27.409Z,57.40
2017-05-25T20:49:55.679Z,57.50
2017-05-25T20:52:23.964Z,57.70
2017-05-25T20:54:52.236Z,57.80
2017-05-25T20:57:20.486Z,58.20
2017-05-25T20:59:48.758Z,58.40
2017-05-25T21:02:17.013Z,58.30
2017-05-25T21:04:45.488Z,58.40
2017-05-25T21:07:13.153Z,58.40
2017-05-25T21:09:41.544Z,58.90
2017-05-25T21:12:09.139Z,58.90
2017-05-25T21:14:37.623Z,59.10
2017-05-25T21:17:06.128Z,59.40
2017-05-25T21:19:33.702Z,59.40
2017-05-25T21:22:01.364Z,59.60
2017-05-25T21:24:28.956Z,59.70
2017-05-25T21:26:57.368Z,60.00
2017-05-25T21:29:24.952Z,60.20
2017-05-25T21:31:53.358Z,60.70
2017-05-25T21:34:21.715Z,60.60
2017-05-25T21:36:50.174Z,60.80
2017-05-25T21:39:17.916Z,60.80
2017-05-25T21:41:46.391Z,61.00
2017-05-25T21:44:13.995Z,61.00
2017-05-25T21:46:42.369Z,61.50
2017-05-25T21:49:10.800Z,61.40
2017-05-25T21:51:39.177Z,61.70
2017-05-25T21:54:07.609Z,61.80
2017-05-25T21:56:35.876Z,61.90
2017-05-25T21:59:04.145Z,62.20
2017-05-25T22:01:32.356Z,62.10
2017-05-25T22:04:00.739Z,62.50
2017-05-25T22:06:29.027Z,62.70
2017-05-25T22:08:57.713Z,62.60
2017-05-25T22:11:26.032Z,62.90
2017-05-25T22:13:54.419Z,62.90
2017-05-25T22:16:22.710Z,63.00
2017-05-25T22:18:51.011Z,63.30
2017-05-25T22:21:19.396Z,63.40
2017-05-25T22:23:47.790Z,63.50
2017-05-25T22:26:15.387Z,63.60
2017-05-25T22:28:43.049Z,64.10
2017-05-25T22:31:11.399Z,64.10
2017-05-25T22:33:39.743Z,64.00
2017-05-25T22:36:08.096Z,63.70
2017-05-25T22:38:36.444Z,64.10
2017-05-25T22:41:04.826Z,64.20
2017-05-25T22:43:33.126Z,64.30
2017-05-25T22:46:01.535Z,64.40
2017-05-25T22:48:29.915Z,64.20
2017-05-25T22:50:57.491Z,64.20
2017-05-25T22:53:25.887Z,64.90
2017-05-25T22:55:54.186Z,64.80
2017-05-25T22:58:22.574Z,64.90
2017-05-25T23:00:50.896Z,65.20
2017-05-25T23:03:18.586Z,65.20
2017-05-25T23:05:46.956Z,65.00
2017-05-25T23:08:15.333Z,65.20
2017-05-25T23:10:43.651Z,65.30
2017-05-25T23:13:12.775Z,65.30
2017-05-25T23:15:41.147Z,65.40
2017-05-25T23:18:09.541Z,65.40
2017-05-25T23:20:37.133Z,65.40
2017-05-25T23:23:05.516Z,65.60
2017-05-25T23:25:33.811Z,65.50
2017-05-25T23:28:02.119Z,65.60
2017-05-25T23:30:30.506Z,66.00
2017-05-25T23:32:58.895Z,65.80
2017-05-25T23:35:27.211Z,65.80
2017-05-25T23:37:55.582Z,66.40
2017-05-25T23:40:23.175Z,66.40
2017-05-25T23:42:51.467Z,66.30
2017-05-25T23:45:19.863Z,66.70
2017-05-25T23:47:48.244Z,67.10
2017-05-25T23:50:16.651Z,67.30
2017-05-25T23:52:44.951Z,67.20
2017-05-25T23:55:13.337Z,67.70
2017-05-25T23:57:41.642Z,67.60
